Hauptseite
METAR-TAF:

METAR-TAF

Flughäfen :

Flughafen Kopenhagen-Kastrup

Kopenhagen, Dänemark

Breite: 55-37N, Länge: 012-39E, Höhe: 5 m

Beobachtung

Neuester Wetterbericht von vor 38 Minuten, um 13:50 UTC
Wind 16 kt aus West
Temperatur 17°C
Luftfeuchtigkeit 55%
Luftdruck 1012 hPa
Sichtweite 10 km oder mehr

METAR: EKCH 081350Z AUTO 27016KT 9999 SCT039/// BKN068/// 17/08 Q1012 nosig

Zeit: 16:28 (14:28 UTC)

Prognose

Neuester Wetterbericht von vor 3 Stunden und 24 Minuten, um 11:04 UTC
Gültige Prognose vom 08 um 12 UTC bis 09 um 12 UTC
Wind 12 kt aus West
Sichtweite 10 km oder mehr
Aufgelockert bewölkt in der Höhe von 3000 ft
Zeitweise
vom 08 um 12 UTC bis 08 um 16 UTC
Leicht bewölkt in der Höhe von 3000 ft, Towering cumulus.

TAF: EKCH 081104Z 0812/0912 26012KT 9999 SCT030 TEMPO 0812/0816 FEW030TCU

Wetterbeobachtungen und Prognosen von mehr als 4000 Flughäfen (METAR und TAF Bericht).

Die verfügbaren Stationen werden durch gelbe und rote Markierungen auf der Karte dargestellt.

Führen Sie die Maus auf sie, um den Namen der Station zu sehen.

Darauf klicken, um die Beobachtung von Wetterbeobachtungen und Prognosen zu sehen.

Um die Karte zu ändern : klicken Sie auf den grünen Tasten mit einem schwarzen Kreuz Zum Vergrößern, auf den grünen Button mit einem Gedankenstrich zu verkleinern, oder auf die grünen Pfeile für benachbarte Karten.


METAR-TAF: